Time;durP1;ratioP1;P1;durP2;ratioP2;P2;SDS_P1;SDS_P2;PMS_P1;PMS_P2;Temp;Humidity;BMP_temperature;BMP_pressure;BME280_temperature;BME280_humidity;BME280_pressure;Samples;Min_cycle;Max_cycle;Signal;HPM_P1;HPM_P2
2020/12/27 00:00:47;;;;;;;8.23;3.67;;;3.40;99.90;;;;;;5093537;28;20024;-73
2020/12/27 00:03:13;;;;;;;3.60;3.30;;;3.40;99.90;;;;;;5094120;28;20039;-74
2020/12/27 00:05:38;;;;;;;2.85;2.65;;;3.30;99.90;;;;;;5093652;28;20024;-72
2020/12/27 00:08:04;;;;;;;4.60;2.83;;;3.30;99.90;;;;;;5092501;28;20020;-74
2020/12/27 00:10:30;;;;;;;3.40;2.92;;;3.20;99.90;;;;;;5088743;28;20042;-73
2020/12/27 00:12:56;;;;;;;3.15;2.65;;;3.20;99.90;;;;;;5092864;28;20020;-73
2020/12/27 00:15:22;;;;;;;2.20;2.05;;;3.20;99.90;;;;;;5075616;28;20047;-73
2020/12/27 00:17:47;;;;;;;4.28;3.05;;;3.10;99.90;;;;;;5076871;28;20099;-73
2020/12/27 00:20:13;;;;;;;3.78;3.33;;;3.10;99.90;;;;;;5093991;28;20035;-74
2020/12/27 00:22:39;;;;;;;3.60;2.80;;;3.10;99.90;;;;;;5094194;28;20032;-74
2020/12/27 00:25:05;;;;;;;2.97;2.72;;;3.20;99.90;;;;;;5092311;28;20111;-73
2020/12/27 00:27:31;;;;;;;3.53;3.22;;;3.20;99.90;;;;;;5094210;28;20105;-74
2020/12/27 00:29:57;;;;;;;3.45;3.08;;;3.10;99.90;;;;;;5094262;28;20028;-73
2020/12/27 00:32:32;;;;;;;3.67;3.33;;;3.10;99.90;;;;;;5094273;28;20122;-73
2020/12/27 00:34:59;;;;;;;5.20;3.88;;;3.00;99.90;;;;;;5092231;28;20194;-73
2020/12/27 00:37:29;;;;;;;2.90;2.47;;;3.00;99.90;;;;;;5093948;28;20031;-73
2020/12/27 00:39:55;;;;;;;4.47;3.65;;;3.00;99.90;;;;;;5093997;28;20032;-73
2020/12/27 00:42:21;;;;;;;3.10;2.78;;;3.00;99.90;;;;;;5093878;28;20028;-74
2020/12/27 00:44:47;;;;;;;4.10;2.80;;;2.90;99.90;;;;;;5093881;28;20028;-73
2020/12/27 00:47:13;;;;;;;3.55;2.83;;;3.00;99.90;;;;;;5093927;28;20053;-73
2020/12/27 00:49:39;;;;;;;2.63;2.25;;;3.00;99.90;;;;;;5093709;28;20043;-74
2020/12/27 00:52:06;;;;;;;3.05;2.85;;;3.00;99.90;;;;;;5092295;28;20110;-73
2020/12/27 00:54:32;;;;;;;4.07;3.42;;;2.90;99.90;;;;;;5093397;28;20020;-73
2020/12/27 00:56:58;;;;;;;3.67;3.25;;;2.90;99.90;;;;;;5093438;28;20020;-74
2020/12/27 00:59:24;;;;;;;3.90;3.55;;;2.80;99.90;;;;;;5092967;28;20031;-73
2020/12/27 01:01:56;;;;;;;5.00;3.20;;;2.80;99.90;;;;;;5092196;28;20110;-73
2020/12/27 01:04:23;;;;;;;3.53;3.22;;;2.70;99.90;;;;;;5085542;28;20634;-74
2020/12/27 01:06:49;;;;;;;4.78;3.50;;;2.70;99.90;;;;;;5090445;28;20092;-73
2020/12/27 01:09:15;;;;;;;3.35;2.78;;;2.70;99.90;;;;;;5091568;28;20093;-73
2020/12/27 01:11:41;;;;;;;5.15;3.63;;;2.70;99.90;;;;;;5091961;28;20012;-73
2020/12/27 01:14:07;;;;;;;4.93;3.63;;;2.70;99.90;;;;;;5091549;28;20024;-73
2020/12/27 01:16:33;;;;;;;4.75;3.03;;;2.70;99.90;;;;;;5092461;28;20032;-73
2020/12/27 01:18:59;;;;;;;4.20;3.47;;;2.60;99.90;;;;;;5091298;28;20047;-73
2020/12/27 01:21:28;;;;;;;4.15;3.10;;;2.60;99.90;;;;;;5091968;28;20050;-74
2020/12/27 01:23:55;;;;;;;4.03;3.45;;;2.60;99.90;;;;;;5091363;28;20024;-74
2020/12/27 01:26:31;;;;;;;3.78;3.45;;;2.60;99.90;;;;;;5094284;28;20028;-73
2020/12/27 01:28:57;;;;;;;7.13;3.47;;;2.60;99.90;;;;;;5095934;28;20028;-73
2020/12/27 01:31:24;;;;;;;4.60;3.53;;;2.60;99.90;;;;;;5096516;28;20028;-77
2020/12/27 01:33:50;;;;;;;3.17;2.90;;;2.60;99.90;;;;;;5097044;28;20452;-73
2020/12/27 01:36:33;;;;;;;3.80;3.15;;;2.60;99.90;;;;;;5095260;28;20035;-74
2020/12/27 01:39:00;;;;;;;4.10;3.55;;;2.60;99.90;;;;;;5094241;28;20020;-73
2020/12/27 01:41:26;;;;;;;6.88;3.78;;;2.60;99.90;;;;;;5096201;28;20430;-73
2020/12/27 01:43:59;;;;;;;4.38;3.90;;;2.70;99.90;;;;;;5094528;28;20732;-73
2020/12/27 01:46:25;;;;;;;6.15;3.03;;;2.60;99.90;;;;;;5095867;28;20173;-73
2020/12/27 01:48:51;;;;;;;4.03;3.67;;;2.70;99.90;;;;;;5095396;28;21498;-73
2020/12/27 01:51:17;;;;;;;4.00;3.05;;;2.70;99.90;;;;;;5095498;28;20107;-73
2020/12/27 01:53:42;;;;;;;6.20;3.55;;;2.60;99.90;;;;;;5088907;28;20040;-73
2020/12/27 01:56:11;;;;;;;5.72;4.13;;;2.60;99.90;;;;;;5094711;28;20032;-73
2020/12/27 01:58:40;;;;;;;7.93;3.90;;;2.70;99.90;;;;;;5095040;28;20023;-73
2020/12/27 02:01:06;;;;;;;3.50;3.20;;;2.60;99.90;;;;;;5095084;28;20020;-73
2020/12/27 02:03:32;;;;;;;3.35;3.05;;;2.60;99.90;;;;;;5095030;28;20019;-73
2020/12/27 02:05:58;;;;;;;4.78;3.58;;;2.60;99.90;;;;;;5095252;28;20024;-75
2020/12/27 02:08:24;;;;;;;2.63;2.40;;;2.60;99.90;;;;;;5095335;28;20115;-73
2020/12/27 02:10:51;;;;;;;13.68;4.00;;;2.60;99.90;;;;;;5098163;28;20088;-74
2020/12/27 02:13:17;;;;;;;3.85;2.92;;;2.60;99.90;;;;;;5103543;28;20421;-73
2020/12/27 02:15:43;;;;;;;3.33;2.85;;;2.60;99.90;;;;;;5088542;28;20116;-73
2020/12/27 02:18:09;;;;;;;2.63;2.42;;;2.60;99.90;;;;;;5096214;28;20024;-73
2020/12/27 02:20:35;;;;;;;4.70;3.88;;;2.60;99.90;;;;;;5093800;28;20060;-73
2020/12/27 02:23:01;;;;;;;5.47;2.97;;;2.60;99.90;;;;;;5088662;28;20024;-73
2020/12/27 02:25:26;;;;;;;3.65;3.35;;;2.50;99.90;;;;;;5094076;28;20028;-73
2020/12/27 02:27:52;;;;;;;4.38;3.67;;;2.50;99.90;;;;;;5092011;28;20031;-74
2020/12/27 02:30:18;;;;;;;3.13;2.90;;;2.50;99.90;;;;;;5094584;28;20364;-73
2020/12/27 02:32:44;;;;;;;4.57;4.18;;;2.50;99.90;;;;;;5090555;28;20499;-73
2020/12/27 02:35:10;;;;;;;4.85;3.88;;;2.60;99.90;;;;;;5085778;28;20552;-73
2020/12/27 02:37:35;;;;;;;7.65;3.50;;;2.50;99.90;;;;;;5094208;28;20028;-73
2020/12/27 02:40:02;;;;;;;4.57;3.42;;;2.50;99.90;;;;;;5094632;28;20389;-75
2020/12/27 02:42:27;;;;;;;10.65;2.70;;;2.50;99.90;;;;;;5092678;28;20024;-73
2020/12/27 02:47:28;;;;;;;4.38;3.97;;;2.50;99.90;;;;;;5091642;28;20445;-73
2020/12/27 02:49:54;;;;;;;3.33;2.75;;;2.50;99.90;;;;;;5093636;28;20451;-73
2020/12/27 02:52:20;;;;;;;2.88;2.60;;;2.50;99.90;;;;;;5090242;28;20051;-73
2020/12/27 02:54:46;;;;;;;3.53;2.67;;;2.50;99.90;;;;;;5092082;28;20403;-73
2020/12/27 02:57:12;;;;;;;4.28;2.78;;;2.40;99.90;;;;;;5089131;28;20052;-73
2020/12/27 02:59:38;;;;;;;3.13;2.92;;;2.40;99.90;;;;;;5092982;28;20525;-73
2020/12/27 03:02:03;;;;;;;3.65;3.35;;;2.40;99.90;;;;;;5090982;28;20162;-73
2020/12/27 03:04:29;;;;;;;2.90;2.42;;;2.40;99.90;;;;;;5095513;28;20394;-73
2020/12/27 03:06:55;;;;;;;4.43;3.50;;;2.50;99.90;;;;;;5093992;28;20170;-73
2020/12/27 03:09:21;;;;;;;2.92;2.55;;;2.40;99.90;;;;;;5094709;28;20024;-75
2020/12/27 03:11:47;;;;;;;4.07;3.42;;;2.40;99.90;;;;;;5094177;28;20020;-73
2020/12/27 03:14:13;;;;;;;4.03;3.63;;;2.40;99.90;;;;;;5093304;28;20111;-73
2020/12/27 03:16:39;;;;;;;3.72;3.30;;;2.40;99.90;;;;;;5095043;28;20032;-73
2020/12/27 03:19:04;;;;;;;4.40;3.33;;;2.40;99.90;;;;;;5095412;28;20039;-73
2020/12/27 03:21:30;;;;;;;4.45;3.45;;;2.40;99.90;;;;;;5093995;28;20482;-73
2020/12/27 03:23:56;;;;;;;5.72;3.78;;;2.40;99.90;;;;;;5089963;28;20035;-73
2020/12/27 03:26:22;;;;;;;7.15;3.30;;;2.40;99.90;;;;;;5093940;28;20023;-73
2020/12/27 03:28:48;;;;;;;4.53;3.45;;;2.40;99.90;;;;;;5095198;28;20073;-76
2020/12/27 03:31:14;;;;;;;5.20;4.35;;;2.40;99.90;;;;;;5094063;28;20028;-73
2020/12/27 03:33:40;;;;;;;3.10;2.83;;;2.40;99.90;;;;;;5093535;28;20048;-73
2020/12/27 03:36:06;;;;;;;5.30;3.58;;;2.40;99.90;;;;;;5093544;28;20032;-73
2020/12/27 03:38:32;;;;;;;3.17;2.88;;;2.30;99.90;;;;;;5094809;28;20024;-73
2020/12/27 03:40:57;;;;;;;5.10;4.07;;;2.40;99.90;;;;;;5094094;28;20032;-73
2020/12/27 03:43:23;;;;;;;5.47;3.75;;;2.40;99.90;;;;;;5090573;28;20028;-73
2020/12/27 03:45:49;;;;;;;8.93;3.67;;;2.40;99.90;;;;;;5093013;28;20375;-73
2020/12/27 03:48:15;;;;;;;3.88;3.58;;;2.30;99.90;;;;;;5093687;28;20387;-73
2020/12/27 03:50:41;;;;;;;4.55;2.85;;;2.30;99.90;;;;;;5092984;28;20020;-73
2020/12/27 03:53:07;;;;;;;4.22;3.83;;;2.30;99.90;;;;;;5092811;28;20035;-73
2020/12/27 03:55:33;;;;;;;6.65;4.20;;;2.30;99.90;;;;;;5093319;28;20501;-73
2020/12/27 03:57:59;;;;;;;4.55;3.65;;;2.40;99.90;;;;;;5093471;28;20051;-73
2020/12/27 04:00:29;;;;;;;4.40;3.03;;;2.40;99.90;;;;;;5094253;28;20170;-73
2020/12/27 04:02:54;;;;;;;4.63;3.38;;;2.40;99.90;;;;;;5093128;28;20495;-73
2020/12/27 04:05:21;;;;;;;3.85;3.40;;;2.40;99.90;;;;;;5093729;28;20024;-73
2020/12/27 04:07:46;;;;;;;3.20;2.80;;;2.40;99.90;;;;;;5093003;28;20027;-73
2020/12/27 04:10:13;;;;;;;5.85;3.95;;;2.40;99.90;;;;;;5093184;28;20016;-73
2020/12/27 04:12:38;;;;;;;5.20;3.65;;;2.40;99.90;;;;;;5094294;28;20027;-73
2020/12/27 04:15:05;;;;;;;4.00;3.40;;;2.40;99.90;;;;;;5093438;28;20032;-73
2020/12/27 04:17:30;;;;;;;4.25;3.85;;;2.40;99.90;;;;;;5093885;28;20111;-73
2020/12/27 04:19:56;;;;;;;8.68;4.72;;;2.40;99.90;;;;;;5093808;28;20059;-73
2020/12/27 04:22:22;;;;;;;8.35;3.17;;;2.40;99.90;;;;;;5092987;28;20393;-73
2020/12/27 04:24:48;;;;;;;3.25;2.95;;;2.40;99.90;;;;;;5092780;28;20406;-74
2020/12/27 04:27:14;;;;;;;5.30;4.10;;;2.40;99.90;;;;;;5092568;28;20022;-73
2020/12/27 04:29:40;;;;;;;4.45;3.50;;;2.40;99.90;;;;;;5093920;28;20047;-73
2020/12/27 04:32:06;;;;;;;3.60;3.00;;;2.50;99.90;;;;;;5092629;28;20020;-73
2020/12/27 04:34:31;;;;;;;6.28;4.15;;;2.40;99.90;;;;;;5093476;28;20085;-73
2020/12/27 04:36:57;;;;;;;4.13;3.55;;;2.40;99.90;;;;;;5091643;28;20391;-73
2020/12/27 04:39:23;;;;;;;4.38;3.97;;;2.40;99.90;;;;;;5092676;28;20024;-73
2020/12/27 04:41:50;;;;;;;6.90;3.60;;;2.40;99.90;;;;;;5093245;28;20032;-73
2020/12/27 04:44:15;;;;;;;4.30;3.95;;;2.40;99.90;;;;;;5092960;28;20122;-73
2020/12/27 04:46:42;;;;;;;3.78;3.00;;;2.40;99.90;;;;;;5091766;28;20020;-73
2020/12/27 04:49:09;;;;;;;3.65;3.25;;;2.40;99.90;;;;;;5085646;28;20016;-73
2020/12/27 04:51:36;;;;;;;4.35;3.45;;;2.40;99.90;;;;;;5086793;28;20017;-73
2020/12/27 04:54:02;;;;;;;6.30;3.78;;;2.40;99.90;;;;;;5094134;28;20019;-73
2020/12/27 04:56:29;;;;;;;4.57;3.65;;;2.40;99.90;;;;;;5084494;28;20023;-73
2020/12/27 04:58:55;;;;;;;4.05;3.33;;;2.40;99.90;;;;;;5093266;28;20390;-74
2020/12/27 05:01:22;;;;;;;4.57;3.58;;;2.40;99.90;;;;;;5093912;28;20024;-73
2020/12/27 05:03:52;;;;;;;7.43;4.43;;;2.50;99.90;;;;;;5092851;28;20027;-73
2020/12/27 05:06:19;;;;;;;4.47;3.72;;;2.50;99.90;;;;;;5095014;28;20028;-73
2020/12/27 05:08:46;;;;;;;7.10;3.75;;;2.50;99.90;;;;;;5104595;28;20043;-73
2020/12/27 05:11:14;;;;;;;4.60;4.03;;;2.50;99.90;;;;;;5103606;28;20069;-73
2020/12/27 05:13:43;;;;;;;6.35;5.15;;;2.50;99.90;;;;;;5103177;28;20031;-73
2020/12/27 05:16:09;;;;;;;6.15;4.70;;;2.60;99.90;;;;;;5100981;28;20058;-73
2020/12/27 05:18:35;;;;;;;9.75;4.90;;;2.60;99.90;;;;;;5103721;28;20028;-73
2020/12/27 05:21:02;;;;;;;5.50;4.28;;;2.60;99.90;;;;;;5101857;28;20031;-73
2020/12/27 05:23:28;;;;;;;7.78;5.00;;;2.60;99.90;;;;;;5098924;28;20043;-73
2020/12/27 05:25:53;;;;;;;6.53;4.00;;;2.60;99.90;;;;;;5101668;28;20025;-73
2020/12/27 05:28:19;;;;;;;4.32;3.92;;;2.70;99.90;;;;;;5102615;28;20427;-73
2020/12/27 05:30:46;;;;;;;5.13;4.40;;;2.70;99.90;;;;;;5101461;28;20020;-73
2020/12/27 05:33:13;;;;;;;5.43;4.13;;;2.70;99.90;;;;;;5104177;28;20050;-73
2020/12/27 05:35:40;;;;;;;6.03;4.68;;;2.60;99.90;;;;;;5103463;28;20024;-74
2020/12/27 05:38:07;;;;;;;4.63;3.85;;;2.60;99.90;;;;;;5103620;28;20031;-73
2020/12/27 05:40:40;;;;;;;4.85;3.55;;;2.60;99.90;;;;;;5097534;28;20027;-73
2020/12/27 05:43:19;;;;;;;7.93;6.78;;;2.60;99.90;;;;;;5105155;28;20426;-73
2020/12/27 05:45:45;;;;;;;7.57;4.30;;;2.60;99.90;;;;;;5101939;28;20056;-73
2020/12/27 05:48:11;;;;;;;3.75;3.45;;;2.60;99.90;;;;;;5098423;28;20020;-73
2020/12/27 05:50:39;;;;;;;6.00;4.57;;;2.70;99.90;;;;;;5104169;28;20016;-73
2020/12/27 05:53:29;;;;;;;6.57;5.03;;;2.70;99.90;;;;;;5102055;28;20111;-74
2020/12/27 05:55:59;;;;;;;4.82;4.40;;;2.70;99.90;;;;;;5101984;28;20046;-73
2020/12/27 05:58:26;;;;;;;6.05;4.43;;;2.60;99.90;;;;;;5103339;28;20111;-73
2020/12/27 06:00:56;;;;;;;5.13;4.63;;;2.70;99.90;;;;;;5103367;28;20020;-73
2020/12/27 06:03:26;;;;;;;5.20;3.83;;;2.70;99.90;;;;;;5101366;28;20391;-73
2020/12/27 06:05:58;;;;;;;7.00;5.32;;;2.70;99.90;;;;;;5102192;28;20024;-73
2020/12/27 06:08:30;;;;;;;6.40;3.92;;;2.60;99.90;;;;;;5095736;28;20108;-73
2020/12/27 06:11:00;;;;;;;5.15;4.65;;;2.70;99.90;;;;;;5099243;28;20091;-73
2020/12/27 06:13:28;;;;;;;5.88;4.70;;;2.70;99.90;;;;;;5106066;28;20101;-73
2020/12/27 06:15:58;;;;;;;6.28;4.50;;;2.60;99.90;;;;;;5106255;28;20031;-74
2020/12/27 06:18:29;;;;;;;7.85;4.80;;;2.60;99.90;;;;;;5121890;28;20024;-73
2020/12/27 06:21:12;;;;;;;9.73;4.97;;;2.60;99.90;;;;;;5108274;28;20028;-72
2020/12/27 06:23:38;;;;;;;7.32;5.85;;;2.50;99.90;;;;;;5105354;28;20024;-73
2020/12/27 06:26:06;;;;;;;9.10;5.60;;;2.50;99.90;;;;;;5103439;28;20573;-74
2020/12/27 06:28:33;;;;;;;7.28;4.70;;;2.60;99.90;;;;;;5104927;28;20020;-73
2020/12/27 06:31:10;;;;;;;12.23;6.38;;;2.60;99.90;;;;;;5108419;28;20020;-73
2020/12/27 06:33:41;;;;;;;4.45;4.00;;;2.70;99.90;;;;;;5106537;28;20051;-73
2020/12/27 06:36:27;;;;;;;5.77;5.00;;;2.70;99.90;;;;;;5105945;28;20564;-73
2020/12/27 06:38:53;;;;;;;5.63;5.00;;;2.60;99.90;;;;;;5108264;28;20990;-73
2020/12/27 06:41:19;;;;;;;9.07;6.45;;;2.70;99.90;;;;;;5108701;28;20028;-73
2020/12/27 06:43:46;;;;;;;5.35;4.35;;;2.70;99.90;;;;;;5107043;28;20439;-74
2020/12/27 06:46:27;;;;;;;8.20;6.53;;;2.70;99.90;;;;;;5103880;28;20028;-73
2020/12/27 06:49:22;;;;;;;10.60;7.68;;;2.70;99.90;;;;;;5105441;28;20360;-73
2020/12/27 06:51:48;;;;;;;5.82;5.18;;;2.70;99.90;;;;;;5090956;28;20064;-73
2020/12/27 06:54:14;;;;;;;5.50;4.55;;;2.70;99.90;;;;;;5096293;28;20020;-73
2020/12/27 06:56:44;;;;;;;7.05;5.45;;;2.70;99.90;;;;;;5093722;28;20016;-73
2020/12/27 06:59:10;;;;;;;6.07;5.07;;;2.60;99.90;;;;;;5088791;28;20024;-73
2020/12/27 07:01:36;;;;;;;4.82;4.40;;;2.60;99.90;;;;;;5095635;28;20020;-78
2020/12/27 07:04:13;;;;;;;7.78;4.78;;;2.60;99.90;;;;;;5101631;28;20032;-73
2020/12/27 07:06:40;;;;;;;6.05;3.92;;;2.70;99.90;;;;;;5098758;28;20024;-75
2020/12/27 07:09:06;;;;;;;9.10;5.88;;;2.70;99.90;;;;;;5095268;28;20012;-74
2020/12/27 07:11:33;;;;;;;4.43;4.03;;;2.70;99.90;;;;;;5093901;28;20043;-74
2020/12/27 07:14:00;;;;;;;7.80;4.88;;;2.70;99.90;;;;;;5092733;28;20020;-75
2020/12/27 07:16:56;;;;;;;6.35;4.40;;;2.70;99.90;;;;;;5092788;28;20098;-75
2020/12/27 07:19:25;;;;;;;6.65;4.00;;;2.70;99.90;;;;;;5094182;28;20027;-75
2020/12/27 07:21:53;;;;;;;4.38;4.05;;;2.70;99.90;;;;;;5085320;28;20550;-73
2020/12/27 07:24:22;;;;;;;6.50;5.40;;;2.70;99.90;;;;;;5094105;28;20028;-72
2020/12/27 07:26:48;;;;;;;6.70;4.07;;;2.80;99.90;;;;;;5090754;28;20024;-73
2020/12/27 07:29:17;;;;;;;7.93;5.93;;;2.80;99.90;;;;;;5094938;28;20012;-75
2020/12/27 07:31:44;;;;;;;5.28;4.63;;;2.80;99.90;;;;;;5085392;28;20112;-77
2020/12/27 07:34:14;;;;;;;9.32;5.93;;;2.80;99.90;;;;;;5094113;28;20855;-74
2020/12/27 07:36:40;;;;;;;11.80;5.78;;;2.80;99.90;;;;;;5091300;28;20028;-75
2020/12/27 07:39:10;;;;;;;8.57;5.88;;;2.90;99.90;;;;;;5091758;28;20055;-74
2020/12/27 07:41:40;;;;;;;10.65;6.20;;;2.90;99.90;;;;;;5092102;28;20071;-75
2020/12/27 07:44:17;;;;;;;6.10;5.05;;;2.90;99.90;;;;;;5092572;28;20023;-74
2020/12/27 07:46:44;;;;;;;7.55;4.82;;;3.00;99.90;;;;;;5089999;28;20077;-73
2020/12/27 07:49:11;;;;;;;9.90;6.97;;;2.90;99.90;;;;;;5092572;28;20481;-74
2020/12/27 07:51:38;;;;;;;5.20;4.70;;;2.90;99.90;;;;;;5091869;28;20115;-73
2020/12/27 07:54:04;;;;;;;6.82;5.20;;;3.00;99.90;;;;;;5094076;28;20020;-74
2020/12/27 07:56:31;;;;;;;10.90;6.32;;;3.00;99.90;;;;;;5090417;28;20074;-74
2020/12/27 07:58:57;;;;;;;12.52;6.30;;;3.00;99.90;;;;;;5093630;28;20013;-74
2020/12/27 08:01:25;;;;;;;11.07;7.22;;;3.00;99.90;;;;;;5093077;28;20020;-75
2020/12/27 08:03:56;;;;;;;9.05;6.45;;;3.00;99.90;;;;;;5092772;28;20028;-74
2020/12/27 08:06:23;;;;;;;7.80;6.45;;;3.20;99.90;;;;;;5091622;28;20030;-72
2020/12/27 08:08:49;;;;;;;8.15;6.15;;;3.20;99.90;;;;;;5093297;28;20024;-75
2020/12/27 08:11:22;;;;;;;6.80;5.50;;;3.20;99.90;;;;;;5092954;28;20102;-74
2020/12/27 08:13:53;;;;;;;9.23;6.18;;;3.30;99.90;;;;;;5093209;28;20051;-73
2020/12/27 08:16:19;;;;;;;8.93;6.00;;;3.30;99.90;;;;;;5091647;28;20028;-75
2020/12/27 08:18:45;;;;;;;8.00;5.93;;;3.20;99.90;;;;;;5092641;28;20469;-74
2020/12/27 08:21:11;;;;;;;10.07;6.80;;;3.30;99.90;;;;;;5093680;28;20028;-74
2020/12/27 08:23:36;;;;;;;10.60;5.15;;;3.40;99.90;;;;;;5091663;28;20028;-73
2020/12/27 08:26:02;;;;;;;10.95;7.93;;;3.50;99.90;;;;;;5090323;28;20533;-75
2020/12/27 08:28:28;;;;;;;8.48;6.63;;;3.60;99.90;;;;;;5092870;28;20017;-75
2020/12/27 08:30:54;;;;;;;8.98;6.50;;;3.70;99.90;;;;;;5091038;28;20020;-74
2020/12/27 08:33:20;;;;;;;7.07;5.00;;;3.70;99.90;;;;;;5093319;28;20020;-75
2020/12/27 08:35:49;;;;;;;12.82;7.65;;;3.70;99.90;;;;;;5091634;28;20041;-74
2020/12/27 08:38:22;;;;;;;6.97;5.72;;;3.70;99.90;;;;;;5091198;28;20478;-75
2020/12/27 08:41:05;;;;;;;9.40;6.85;;;3.70;99.90;;;;;;5093844;28;20031;-75
2020/12/27 08:43:46;;;;;;;9.80;5.80;;;3.70;99.90;;;;;;5092301;28;20107;-72
2020/12/27 08:46:14;;;;;;;13.88;7.05;;;3.80;99.90;;;;;;5087837;28;20027;-73
2020/12/27 08:48:51;;;;;;;8.15;6.70;;;3.90;99.90;;;;;;5089863;28;20024;-73
2020/12/27 08:51:19;;;;;;;5.60;4.53;;;3.90;99.90;;;;;;5087678;28;20016;-74
2020/12/27 08:53:45;;;;;;;7.10;5.10;;;3.90;99.90;;;;;;5091759;28;20024;-73
2020/12/27 08:56:11;;;;;;;7.95;5.85;;;3.90;99.90;;;;;;5093588;28;20054;-75
2020/12/27 08:58:37;;;;;;;6.43;5.82;;;3.90;99.90;;;;;;5085199;28;20089;-74
2020/12/27 09:01:19;;;;;;;11.48;7.93;;;3.90;99.90;;;;;;5092887;28;20418;-74
2020/12/27 09:03:45;;;;;;;9.63;6.65;;;3.90;99.90;;;;;;5090751;28;20031;-75
2020/12/27 09:06:14;;;;;;;9.50;6.85;;;4.00;99.90;;;;;;5093401;28;20398;-74
2020/12/27 09:08:41;;;;;;;14.57;6.03;;;3.90;99.90;;;;;;5092845;28;20107;-75
2020/12/27 09:11:07;;;;;;;6.20;5.07;;;3.90;99.90;;;;;;5086661;28;20634;-77
2020/12/27 09:13:38;;;;;;;9.90;6.30;;;4.00;99.90;;;;;;5085026;28;20023;-75
2020/12/27 09:16:03;;;;;;;6.40;4.95;;;4.00;99.90;;;;;;5092133;28;20039;-74
2020/12/27 09:18:31;;;;;;;12.82;6.35;;;4.00;99.90;;;;;;5092070;28;20024;-75
2020/12/27 09:20:59;;;;;;;5.88;5.32;;;4.10;99.90;;;;;;5091235;28;20028;-74
2020/12/27 09:23:25;;;;;;;7.63;6.07;;;4.10;99.90;;;;;;5089593;28;20098;-74
2020/12/27 09:26:12;;;;;;;7.15;5.65;;;4.10;99.90;;;;;;5089824;28;20665;-74
2020/12/27 09:28:39;;;;;;;10.90;6.38;;;4.20;99.90;;;;;;5088866;28;20166;-73
2020/12/27 09:31:11;;;;;;;6.72;4.88;;;4.30;99.90;;;;;;5091899;28;20020;-75
2020/12/27 09:33:47;;;;;;;5.95;5.28;;;4.30;99.90;;;;;;5090776;28;20020;-72
2020/12/27 09:36:14;;;;;;;7.20;5.55;;;4.30;99.90;;;;;;5086418;28;20020;-75
2020/12/27 09:38:43;;;;;;;6.78;5.13;;;4.30;99.90;;;;;;5092576;28;20042;-75
2020/12/27 09:41:34;;;;;;;6.72;5.55;;;4.30;99.90;;;;;;5089379;28;20021;-73
2020/12/27 09:44:03;;;;;;;8.00;4.75;;;4.40;99.90;;;;;;5099476;28;20039;-73
2020/12/27 09:46:42;;;;;;;9.77;6.85;;;4.60;99.90;;;;;;5092199;28;20031;-69
2020/12/27 09:49:31;;;;;;;6.78;5.85;;;4.90;99.90;;;;;;5093393;28;20062;-70
2020/12/27 09:52:13;;;;;;;8.30;6.22;;;4.90;99.90;;;;;;5097084;28;20024;-69
2020/12/27 09:54:41;;;;;;;9.68;5.65;;;5.00;99.90;;;;;;5095213;28;20020;-70
2020/12/27 09:57:18;;;;;;;9.38;5.78;;;5.10;99.90;;;;;;5087796;28;20482;-71
2020/12/27 09:59:46;;;;;;;9.57;7.30;;;5.10;99.90;;;;;;5095897;28;20028;-69
2020/12/27 10:02:12;;;;;;;8.23;5.57;;;5.10;99.90;;;;;;5093771;28;20502;-71
2020/12/27 10:04:38;;;;;;;7.70;6.88;;;5.20;99.90;;;;;;5092982;28;20545;-74
2020/12/27 10:07:04;;;;;;;6.82;5.05;;;5.10;99.90;;;;;;5091001;28;20108;-72
2020/12/27 10:09:33;;;;;;;11.82;6.65;;;5.00;99.90;;;;;;5093827;28;20020;-72
2020/12/27 10:12:00;;;;;;;6.45;4.80;;;4.90;99.90;;;;;;5093696;28;20069;-74
2020/12/27 10:14:26;;;;;;;6.40;5.70;;;4.90;99.90;;;;;;5094344;28;20032;-74
2020/12/27 10:16:51;;;;;;;8.55;4.65;;;4.90;99.90;;;;;;5090965;28;20034;-73
2020/12/27 10:19:17;;;;;;;10.90;6.60;;;4.90;99.90;;;;;;5093157;28;20103;-74
2020/12/27 10:21:47;;;;;;;10.75;6.10;;;4.90;99.90;;;;;;5094041;28;20103;-74
2020/12/27 10:24:13;;;;;;;5.28;4.70;;;5.10;99.90;;;;;;5094476;28;20058;-73
2020/12/27 10:26:39;;;;;;;5.43;4.00;;;5.00;99.90;;;;;;5092929;28;20534;-73
2020/12/27 10:29:05;;;;;;;7.30;5.68;;;5.00;99.90;;;;;;5093619;28;20154;-73
2020/12/27 10:31:31;;;;;;;10.13;6.90;;;5.20;99.90;;;;;;5094034;28;20020;-72
2020/12/27 10:33:57;;;;;;;7.55;5.13;;;5.10;99.90;;;;;;5093027;28;20035;-73
2020/12/27 10:36:23;;;;;;;7.13;4.85;;;5.00;99.90;;;;;;5094574;28;20035;-73
2020/12/27 10:38:49;;;;;;;5.90;5.13;;;5.20;99.90;;;;;;5093509;28;20031;-73
2020/12/27 10:41:15;;;;;;;11.98;6.60;;;5.20;99.90;;;;;;5092582;28;20024;-74
2020/12/27 10:43:41;;;;;;;8.00;5.70;;;5.40;99.90;;;;;;5093739;28;20487;-74
2020/12/27 10:46:07;;;;;;;5.65;4.85;;;5.50;99.90;;;;;;5091136;28;20065;-74
2020/12/27 10:48:33;;;;;;;6.43;5.82;;;5.50;99.90;;;;;;5091855;28;20525;-74
2020/12/27 10:50:59;;;;;;;5.70;5.15;;;5.60;99.90;;;;;;5092185;28;20056;-74
2020/12/27 10:53:26;;;;;;;8.15;6.28;;;5.50;99.90;;;;;;5094776;28;20102;-73
2020/12/27 10:55:51;;;;;;;4.15;3.70;;;5.50;99.90;;;;;;5092852;28;20575;-75
2020/12/27 10:58:17;;;;;;;6.53;5.10;;;5.40;99.90;;;;;;5093531;28;20162;-74
2020/12/27 11:00:44;;;;;;;6.90;5.43;;;5.40;99.90;;;;;;5092700;28;20538;-74
2020/12/27 11:03:10;;;;;;;6.40;4.47;;;5.50;99.90;;;;;;5094164;28;20026;-73
2020/12/27 11:05:38;;;;;;;6.05;5.38;;;5.60;99.90;;;;;;5093709;28;20103;-74
2020/12/27 11:08:07;;;;;;;6.72;5.47;;;5.70;99.90;;;;;;5093671;28;20020;-74
2020/12/27 11:10:34;;;;;;;7.18;5.70;;;5.70;99.90;;;;;;5092286;28;20023;-75
2020/12/27 11:13:00;;;;;;;7.13;4.53;;;5.60;99.90;;;;;;5092026;28;20070;-74
2020/12/27 11:15:27;;;;;;;4.25;3.85;;;5.60;99.90;;;;;;5091821;28;20038;-74
2020/12/27 11:17:52;;;;;;;4.82;4.07;;;5.60;99.90;;;;;;5091629;28;20075;-78
2020/12/27 11:20:18;;;;;;;6.03;4.68;;;5.60;99.90;;;;;;5093545;28;20027;-75
2020/12/27 11:22:44;;;;;;;6.00;4.97;;;5.70;99.90;;;;;;5091643;28;20041;-74
2020/12/27 11:25:11;;;;;;;7.90;5.25;;;5.70;99.90;;;;;;5092873;28;20031;-73
2020/12/27 11:27:36;;;;;;;5.13;4.63;;;5.70;99.90;;;;;;5091168;28;20024;-75
2020/12/27 11:30:05;;;;;;;8.55;4.95;;;5.80;99.90;;;;;;5091009;28;20498;-75
2020/12/27 11:32:31;;;;;;;5.03;4.38;;;5.80;99.90;;;;;;5092945;28;20059;-74
2020/12/27 11:34:56;;;;;;;6.43;5.40;;;5.80;99.90;;;;;;5091702;28;20024;-76
2020/12/27 11:37:22;;;;;;;7.35;5.05;;;5.80;99.90;;;;;;5090938;28;20028;-73
2020/12/27 11:39:48;;;;;;;6.13;5.07;;;5.80;99.90;;;;;;5093069;28;20068;-75
2020/12/27 11:42:14;;;;;;;6.88;5.47;;;5.90;99.90;;;;;;5092703;28;20039;-75
2020/12/27 11:44:40;;;;;;;5.97;4.88;;;5.90;99.90;;;;;;5091309;28;20020;-74
2020/12/27 11:47:07;;;;;;;9.05;5.93;;;5.90;99.90;;;;;;5090021;28;20028;-74
2020/12/27 11:49:33;;;;;;;10.88;5.20;;;6.00;99.90;;;;;;5092335;28;20389;-75
2020/12/27 11:51:59;;;;;;;5.10;4.38;;;6.00;99.90;;;;;;5090047;28;20043;-74
2020/12/27 11:54:25;;;;;;;6.53;5.57;;;5.90;99.90;;;;;;5090689;28;20693;-75
2020/12/27 11:56:55;;;;;;;5.90;5.40;;;5.70;99.90;;;;;;5092808;28;20121;-75
2020/12/27 11:59:21;;;;;;;6.15;5.05;;;5.90;99.90;;;;;;5092214;28;20125;-73
2020/12/27 12:01:47;;;;;;;6.63;5.38;;;5.90;99.90;;;;;;5092530;28;20020;-75
2020/12/27 12:04:13;;;;;;;7.47;6.50;;;5.90;99.90;;;;;;5092014;28;20511;-73
2020/12/27 12:06:39;;;;;;;5.68;4.97;;;5.80;99.90;;;;;;5090542;28;20470;-74
2020/12/27 12:09:05;;;;;;;4.95;4.10;;;5.80;99.90;;;;;;5090842;28;20028;-73
2020/12/27 12:11:34;;;;;;;6.93;5.00;;;5.70;99.90;;;;;;5092132;28;20119;-73
2020/12/27 12:14:00;;;;;;;6.53;4.70;;;5.70;99.90;;;;;;5092082;28;20044;-75
2020/12/27 12:16:27;;;;;;;7.20;5.47;;;5.70;99.90;;;;;;5090458;28;20063;-76
2020/12/27 12:18:53;;;;;;;6.78;5.05;;;5.70;99.90;;;;;;5090755;28;20020;-73
2020/12/27 12:21:19;;;;;;;17.83;4.20;;;5.80;99.90;;;;;;5092555;28;20429;-74
2020/12/27 12:23:45;;;;;;;7.07;4.88;;;5.90;99.90;;;;;;5091368;28;20669;-74
2020/12/27 12:26:17;;;;;;;6.22;4.85;;;5.90;99.90;;;;;;5087582;28;20081;-74
2020/12/27 12:28:42;;;;;;;6.70;5.90;;;5.90;99.90;;;;;;5089334;28;20020;-78
2020/12/27 12:31:11;;;;;;;5.63;4.85;;;6.00;99.90;;;;;;5092097;28;20028;-73
2020/12/27 12:33:37;;;;;;;6.22;5.53;;;6.00;99.90;;;;;;5091643;28;20016;-74
2020/12/27 12:36:04;;;;;;;5.65;4.55;;;6.00;99.90;;;;;;5092499;28;20028;-74
2020/12/27 12:38:30;;;;;;;8.80;5.50;;;6.10;99.90;;;;;;5091143;28;20475;-74
2020/12/27 12:40:56;;;;;;;5.88;5.03;;;6.10;99.90;;;;;;5091337;28;20498;-73
2020/12/27 12:43:21;;;;;;;5.40;4.68;;;6.20;99.90;;;;;;5092297;28;20081;-74
2020/12/27 12:45:47;;;;;;;5.97;5.07;;;6.30;99.90;;;;;;5090985;28;20035;-76
2020/12/27 12:48:13;;;;;;;7.72;5.68;;;6.40;99.90;;;;;;5089466;28;20023;-75
2020/12/27 12:50:39;;;;;;;5.32;3.78;;;6.40;99.90;;;;;;5091829;28;20028;-74
2020/12/27 12:53:05;;;;;;;6.38;5.35;;;6.30;99.90;;;;;;5089264;28;20483;-73
2020/12/27 12:55:31;;;;;;;5.00;3.78;;;6.20;99.90;;;;;;5092114;28;20028;-74
2020/12/27 12:57:56;;;;;;;5.43;4.85;;;6.10;99.90;;;;;;5089757;28;20032;-73
2020/12/27 13:00:22;;;;;;;5.45;3.70;;;6.20;99.90;;;;;;5091967;28;20020;-73